Terminal Aerodrome Forecast
Issued by NWS

Home | Current Version | Previous Version | Text Only | Print | Product List | Glossary On
Versions: 1 2 3 4 5 6 7 8 9 10 11 12 13 14 15 16 17 18 19 20
896
FTUS43 KDTX 190755 AAA
TAFDET
TAF AMD
KDET 190755Z 1908/2006 31015G25KT P6SM SCT025 OVC035
     FM191100 29015KT P6SM BKN040
     FM191400 28014G23KT P6SM BKN040
      TEMPO 1918/1922 5SM -SHSN BR BKN035
     FM200000 27010KT P6SM BKN040=

USA.gov is the U.S. government's official web portal to all federal, state and local government web resources and services.